Aviation Digital Data Service (ADDS)

Output produced by METARs form (1326 UTC 08 May 2021)
found at http://aviationweather.gov/metar/data/
 
KSGR 081226Z 0812/0912 16007KT P6SM SCT025 
     TEMPO 0812/0815 BKN025 
     FM081500 16014G24KT P6SM SCT030 
     FM081800 17017G27KT P6SM SCT045 
     FM090100 16014G24KT P6SM SCT025 
     FM090500 17015KT P6SM BKN025 
     FM091000 17012KT P6SM BKN015